Time;durP1;ratioP1;P1;durP2;ratioP2;P2;SDS_P1;SDS_P2;PMS_P1;PMS_P2;Temp;Humidity;BMP_temperature;BMP_pressure;BME280_temperature;BME280_humidity;BME280_pressure;Samples;Min_cycle;Max_cycle;Signal;HPM_P1;HPM_P2
2022/09/26 00:01:19;;;;;;;5.60;5.10;;;;;;;9.56;100.00;99025.39;1735960;82;21025;-61
2022/09/26 00:03:49;;;;;;;5.92;4.83;;;;;;;9.59;100.00;99023.48;1729816;82;21112;-61
2022/09/26 00:06:16;;;;;;;5.00;4.53;;;;;;;9.60;100.00;99021.27;1728311;81;21079;-62
2022/09/26 00:08:45;;;;;;;5.92;5.33;;;;;;;9.63;100.00;99013.34;1732067;82;21154;-60
2022/09/26 00:11:16;;;;;;;6.03;5.30;;;;;;;9.65;100.00;99008.93;1737083;82;21041;-62
2022/09/26 00:13:43;;;;;;;6.22;5.60;;;;;;;9.68;100.00;99004.06;1738355;82;21061;-61
2022/09/26 00:16:12;;;;;;;7.83;6.15;;;;;;;9.67;100.00;99004.97;1730779;81;21089;-61
2022/09/26 00:18:39;;;;;;;7.08;6.17;;;;;;;9.67;100.00;98998.02;1734733;82;21148;-61
2022/09/26 00:21:10;;;;;;;6.58;5.65;;;;;;;9.70;100.00;99001.39;1732440;81;21180;-61
2022/09/26 00:23:37;;;;;;;9.73;5.70;;;;;;;9.66;100.00;98995.04;1734225;82;20977;-61
2022/09/26 00:26:05;;;;;;;6.55;5.20;;;;;;;9.67;100.00;98990.69;1731810;82;21124;-61
2022/09/26 00:28:31;;;;;;;8.20;6.10;;;;;;;9.68;100.00;98984.58;1735348;81;21049;-61
2022/09/26 00:31:06;;;;;;;7.03;6.30;;;;;;;9.69;100.00;98979.78;1744060;81;21136;-61
2022/09/26 00:33:32;;;;;;;8.18;6.12;;;;;;;9.68;100.00;98978.09;1740216;81;21048;-61
2022/09/26 00:35:59;;;;;;;7.12;5.60;;;;;;;9.66;100.00;98978.16;1731292;82;21584;-61
2022/09/26 00:38:26;;;;;;;8.55;6.45;;;;;;;9.59;100.00;98978.53;1734420;82;21041;-61
2022/09/26 00:40:53;;;;;;;8.18;5.70;;;;;;;9.50;100.00;98974.58;1734771;82;21517;-62
2022/09/26 00:43:44;;;;;;;6.58;4.95;;;;;;;9.44;100.00;98972.70;1734360;81;21545;-61
2022/09/26 00:46:37;;;;;;;8.50;5.42;;;;;;;9.42;100.00;98969.33;1732227;82;20951;-61
2022/09/26 00:49:26;;;;;;;6.13;5.27;;;;;;;9.40;100.00;98962.06;1699309;82;21051;-61
2022/09/26 00:51:59;;;;;;;7.33;5.62;;;;;;;9.42;100.00;98962.39;1743799;82;20985;-61
2022/09/26 00:54:25;;;;;;;7.45;6.17;;;;;;;9.45;100.00;98966.15;1735160;82;21453;-61
2022/09/26 00:56:55;;;;;;;7.03;5.78;;;;;;;9.49;100.00;98967.70;1734660;82;22030;-61
2022/09/26 00:59:33;;;;;;;7.30;6.35;;;;;;;9.54;100.00;98968.34;1727941;82;21211;-60
2022/09/26 01:02:00;;;;;;;9.00;5.95;;;;;;;9.59;100.00;98963.77;1727483;81;21088;-61
2022/09/26 01:04:29;;;;;;;8.40;5.97;;;;;;;9.64;100.00;98967.45;1711954;82;20957;-61
2022/09/26 01:06:59;;;;;;;7.42;6.20;;;;;;;9.68;100.00;98965.95;1718663;82;20998;-61
2022/09/26 01:09:26;;;;;;;7.62;5.83;;;;;;;9.73;100.00;98969.64;1733902;82;21229;-61
2022/09/26 01:11:55;;;;;;;6.45;5.75;;;;;;;9.76;100.00;98972.11;1718313;82;21366;-61
2022/09/26 01:14:22;;;;;;;5.70;5.20;;;;;;;9.79;100.00;98971.13;1737092;82;21470;-61
2022/09/26 01:16:50;;;;;;;7.20;4.65;;;;;;;9.83;100.00;98983.03;1736703;81;20997;-61
2022/09/26 01:19:55;;;;;;;5.90;5.25;;;;;;;9.87;100.00;98980.23;1726469;81;20937;-61
2022/09/26 01:22:50;;;;;;;7.87;5.53;;;;;;;9.90;100.00;98968.41;1736986;82;21160;-61
2022/09/26 01:25:51;;;;;;;6.45;5.42;;;;;;;9.98;100.00;98962.41;1731083;82;21064;-62
2022/09/26 01:29:00;;;;;;;6.65;5.95;;;;;;;10.05;100.00;98953.84;1732910;81;21017;-61
2022/09/26 01:32:47;;;;;;;10.00;6.47;;;;;;;10.10;99.37;98954.47;1733581;82;21358;-61
2022/09/26 01:34:23;;;;;;;6.78;4.80;;;;;;;10.14;100.00;98959.91;1728692;82;20950;-61
2022/09/26 01:37:13;;;;;;;6.37;5.22;;;;;;;10.17;100.00;98960.23;1738599;81;21087;-61
2022/09/26 01:39:58;;;;;;;8.13;5.67;;;;;;;10.17;100.00;98958.93;1726755;82;21908;-61
2022/09/26 01:42:41;;;;;;;5.85;5.00;;;;;;;10.17;100.00;98961.07;1735442;81;21017;-61
2022/09/26 01:45:23;;;;;;;5.65;5.03;;;;;;;10.20;99.99;98963.53;1735460;82;22330;-61
2022/09/26 01:48:09;;;;;;;5.90;5.17;;;;;;;10.22;99.03;98960.86;1713456;82;21080;-61
2022/09/26 01:50:40;;;;;;;7.42;4.67;;;;;;;10.24;99.22;98962.93;1730820;82;21128;-61
2022/09/26 01:53:15;;;;;;;5.62;5.08;;;;;;;10.26;99.00;98963.25;1723949;81;20946;-61
2022/09/26 01:55:52;;;;;;;7.40;4.60;;;;;;;10.28;98.64;98967.08;1734150;81;21143;-61
2022/09/26 01:58:38;;;;;;;6.83;4.78;;;;;;;10.31;98.17;98967.77;1727931;81;20998;-61
2022/09/26 02:01:08;;;;;;;5.72;4.90;;;;;;;10.33;98.13;98970.30;1719594;81;20949;-61
2022/09/26 02:03:40;;;;;;;5.60;4.85;;;;;;;10.37;98.40;98980.09;1737468;81;21133;-62
2022/09/26 02:06:11;;;;;;;8.15;5.62;;;;;;;10.35;98.34;98973.22;1734313;82;20950;-62
2022/09/26 02:08:48;;;;;;;6.90;6.03;;;;;;;10.34;98.62;98973.28;1734589;82;21500;-61
2022/09/26 02:11:17;;;;;;;7.92;7.12;;;;;;;10.38;98.85;98970.09;1730165;81;21041;-62
2022/09/26 02:14:03;;;;;;;14.10;12.33;;;;;;;10.40;98.60;98966.47;1735119;82;21010;-61
2022/09/26 02:16:46;;;;;;;22.95;20.65;;;;;;;10.44;98.68;98964.56;1735303;82;21132;-61
2022/09/26 02:19:24;;;;;;;24.80;22.42;;;;;;;10.48;98.83;98964.80;1739273;82;21010;-61
2022/09/26 02:21:50;;;;;;;27.37;24.67;;;;;;;10.52;99.01;98963.75;1727929;82;20962;-61
2022/09/26 02:24:17;;;;;;;30.05;26.93;;;;;;;10.55;98.85;98962.30;1735175;82;21486;-60
2022/09/26 02:26:43;;;;;;;29.23;26.27;;;;;;;10.57;98.64;98960.01;1736521;82;21108;-62
2022/09/26 02:29:12;;;;;;;10.28;8.80;;;;;;;10.60;98.66;98958.98;1735442;82;21138;-61
2022/09/26 02:31:43;;;;;;;17.27;10.50;;;;;;;10.63;98.67;98960.14;1738075;82;21057;-61
2022/09/26 02:34:10;;;;;;;17.95;11.22;;;;;;;10.64;99.17;98950.97;1730982;81;21040;-61
2022/09/26 02:36:37;;;;;;;15.43;13.08;;;;;;;10.66;99.67;98943.09;1741778;82;20966;-61
2022/09/26 02:39:04;;;;;;;15.75;12.68;;;;;;;10.66;99.82;98937.89;1735878;82;21024;-60
2022/09/26 02:41:49;;;;;;;13.62;11.40;;;;;;;10.67;99.87;98939.57;1738494;82;21228;-62
2022/09/26 02:44:59;;;;;;;18.20;11.28;;;;;;;10.67;99.84;98938.27;1740705;81;20965;-61
2022/09/26 02:47:40;;;;;;;11.70;10.35;;;;;;;10.68;99.97;98937.36;1720130;82;20998;-62
2022/09/26 02:50:33;;;;;;;15.03;12.07;;;;;;;10.68;99.65;98930.85;1732704;82;21073;-62
2022/09/26 02:53:21;;;;;;;14.33;13.00;;;;;;;10.66;100.00;98929.62;1731197;82;20996;-62
2022/09/26 02:56:02;;;;;;;11.05;9.98;;;;;;;10.66;100.00;98932.69;1736630;81;21360;-68
2022/09/26 02:58:47;;;;;;;12.47;11.28;;;;;;;10.63;100.00;98937.58;1733333;82;21072;-68
2022/09/26 03:01:22;;;;;;;13.18;11.88;;;;;;;10.62;100.00;98941.55;1729298;81;20997;-68
2022/09/26 03:03:54;;;;;;;11.03;9.85;;;;;;;10.60;100.00;98946.83;1730989;81;20986;-69
2022/09/26 03:06:27;;;;;;;12.05;10.45;;;;;;;10.58;100.00;98949.99;1729772;81;21706;-67
2022/09/26 03:08:53;;;;;;;14.28;9.88;;;;;;;10.54;100.00;98952.36;1729889;82;21215;-69
2022/09/26 03:11:22;;;;;;;11.75;10.65;;;;;;;10.49;100.00;98948.29;1726902;81;21009;-69
2022/09/26 03:13:51;;;;;;;11.48;10.28;;;;;;;10.46;100.00;98960.14;1728963;82;21056;-69
2022/09/26 03:16:20;;;;;;;12.45;11.05;;;;;;;10.39;100.00;98960.91;1733383;81;21018;-69
2022/09/26 03:18:52;;;;;;;10.68;9.68;;;;;;;10.32;100.00;98956.46;1727432;81;21002;-68
2022/09/26 03:21:19;;;;;;;11.22;9.28;;;;;;;10.33;100.00;98959.45;1713790;82;21273;-66
2022/09/26 03:23:46;;;;;;;11.45;8.95;;;;;;;10.36;100.00;98957.16;1713405;82;21057;-64
2022/09/26 03:26:16;;;;;;;12.05;8.85;;;;;;;10.40;100.00;98952.62;1730897;81;21536;-64
2022/09/26 03:28:45;;;;;;;9.67;8.67;;;;;;;10.42;100.00;98945.14;1749949;81;20945;-64
2022/09/26 03:31:12;;;;;;;14.95;13.10;;;;;;;10.42;100.00;98951.64;1723510;82;21501;-64
2022/09/26 03:33:52;;;;;;;11.63;8.73;;;;;;;10.43;100.00;98943.38;1694138;82;21091;-65
2022/09/26 03:36:21;;;;;;;9.20;7.90;;;;;;;10.49;100.00;98943.93;1736019;82;20989;-65
2022/09/26 03:38:48;;;;;;;15.20;9.18;;;;;;;10.54;100.00;98943.71;1734697;82;20959;-65
2022/09/26 03:41:34;;;;;;;9.03;8.13;;;;;;;10.55;100.00;98941.50;1722509;82;21151;-65
2022/09/26 03:44:03;;;;;;;10.13;8.95;;;;;;;10.55;100.00;98951.89;1725286;82;20997;-65
2022/09/26 03:46:32;;;;;;;9.95;7.40;;;;;;;10.57;100.00;98947.47;1731831;81;21157;-64
2022/09/26 03:48:59;;;;;;;9.15;7.15;;;;;;;10.60;100.00;98953.78;1734057;82;21163;-65
2022/09/26 03:51:26;;;;;;;9.08;6.92;;;;;;;10.60;100.00;98952.03;1735102;82;21174;-64
2022/09/26 03:53:53;;;;;;;8.15;6.90;;;;;;;10.59;100.00;98962.05;1731480;82;20990;-64
2022/09/26 03:56:20;;;;;;;9.18;6.58;;;;;;;10.54;100.00;98961.45;1730537;81;21005;-64
2022/09/26 03:58:52;;;;;;;8.18;7.12;;;;;;;10.54;100.00;98954.95;1732850;81;22025;-65
2022/09/26 04:01:19;;;;;;;7.87;6.03;;;;;;;10.56;100.00;98945.32;1731896;81;20945;-65
2022/09/26 04:03:46;;;;;;;8.65;6.45;;;;;;;10.58;100.00;98947.39;1711518;82;20962;-64
2022/09/26 04:06:18;;;;;;;6.28;5.70;;;;;;;10.59;100.00;98947.74;1729170;82;20990;-66
2022/09/26 04:08:47;;;;;;;8.03;5.90;;;;;;;10.58;100.00;98943.95;1735791;81;20997;-65
2022/09/26 04:11:18;;;;;;;7.00;5.47;;;;;;;10.58;100.00;98940.89;1727994;81;21131;-64
2022/09/26 04:13:45;;;;;;;6.83;5.12;;;;;;;10.59;100.00;98944.33;1729033;81;20994;-65
2022/09/26 04:16:15;;;;;;;6.85;6.08;;;;;;;10.60;100.00;98944.23;1731900;82;20997;-65
2022/09/26 04:18:43;;;;;;;10.93;6.92;;;;;;;10.62;100.00;98945.45;1725851;81;21065;-65
2022/09/26 04:21:15;;;;;;;9.13;7.12;;;;;;;10.63;100.00;98946.68;1733714;82;21219;-65
2022/09/26 04:23:42;;;;;;;10.70;7.35;;;;;;;10.64;100.00;98940.56;1732198;82;21094;-64
2022/09/26 04:26:16;;;;;;;14.78;8.05;;;;;;;10.64;100.00;98942.32;1715705;82;21056;-65
2022/09/26 04:28:44;;;;;;;10.13;7.83;;;;;;;10.63;100.00;98931.53;1735349;82;21049;-65
2022/09/26 04:31:11;;;;;;;9.15;7.37;;;;;;;10.64;100.00;98944.46;1729619;81;20993;-64
2022/09/26 04:33:40;;;;;;;8.90;7.28;;;;;;;10.65;100.00;98946.61;1735466;81;21017;-65
2022/09/26 04:36:11;;;;;;;10.00;7.92;;;;;;;10.65;100.00;98938.34;1732174;82;21235;-65
2022/09/26 04:38:39;;;;;;;10.00;7.15;;;;;;;10.66;100.00;98948.29;1734599;81;21430;-65
2022/09/26 04:41:09;;;;;;;10.70;8.35;;;;;;;10.66;100.00;98939.19;1731986;82;21537;-65
2022/09/26 04:43:37;;;;;;;10.23;7.92;;;;;;;10.69;100.00;98938.58;1724966;81;21083;-64
2022/09/26 04:46:11;;;;;;;11.65;8.68;;;;;;;10.71;100.00;98930.70;1731451;82;21061;-64
2022/09/26 04:48:38;;;;;;;12.35;8.75;;;;;;;10.74;100.00;98931.01;1714513;82;21148;-65
2022/09/26 04:51:17;;;;;;;9.53;7.80;;;;;;;10.74;100.00;98927.11;1724470;81;20990;-65
2022/09/26 04:53:44;;;;;;;15.32;11.00;;;;;;;10.75;100.00;98930.94;1729936;82;21128;-65
2022/09/26 04:56:14;;;;;;;19.37;9.10;;;;;;;10.77;100.00;98920.00;1731061;82;21001;-65
2022/09/26 04:58:42;;;;;;;14.43;10.00;;;;;;;10.79;100.00;98916.02;1727861;81;21093;-65
2022/09/26 05:01:13;;;;;;;19.55;10.85;;;;;;;10.83;100.00;98917.06;1727569;81;20965;-64
2022/09/26 05:03:58;;;;;;;19.75;9.95;;;;;;;10.89;100.00;98919.81;1732382;81;21056;-65
2022/09/26 05:06:25;;;;;;;22.60;8.58;;;;;;;10.93;100.00;98907.88;1735554;81;20986;-65
2022/09/26 05:11:47;;;;;;;19.95;7.95;;;;;;;11.05;100.00;98902.48;1725364;81;20934;-65
2022/09/26 05:14:14;;;;;;;10.88;6.80;;;;;;;11.12;100.00;98910.36;1733867;82;21438;-64
2022/09/26 05:16:42;;;;;;;15.45;7.22;;;;;;;11.15;100.00;98913.27;1731402;81;21001;-65
2022/09/26 05:19:11;;;;;;;16.32;8.43;;;;;;;11.14;100.00;98911.58;1727303;81;21137;-65
2022/09/26 05:21:39;;;;;;;6.85;6.12;;;;;;;11.15;100.00;98914.11;1733911;82;21520;-64
2022/09/26 05:26:56;;;;;;;8.98;6.60;;;;;;;11.25;100.00;98909.24;1718568;81;21363;-64
2022/09/26 05:29:27;;;;;;;10.53;6.42;;;;;;;11.33;100.00;98901.42;1699773;82;21444;-64
2022/09/26 05:32:00;;;;;;;9.90;6.10;;;;;;;11.43;100.00;98899.14;1732488;81;21544;-64
2022/09/26 05:34:27;;;;;;;10.55;6.22;;;;;;;11.55;100.00;98902.86;1730515;81;20994;-65
2022/09/26 05:36:55;;;;;;;8.78;5.97;;;;;;;11.66;100.00;98890.08;1730209;81;21036;-67
2022/09/26 05:42:08;;;;;;;21.68;7.33;;;;;;;11.86;100.00;98896.36;1734362;80;21006;-65
2022/09/26 05:44:38;;;;;;;13.28;5.55;;;;;;;11.97;99.59;98899.23;1720761;82;21022;-65
2022/09/26 05:47:07;;;;;;;10.10;6.47;;;;;;;12.07;98.50;98893.86;1736139;82;21041;-69
2022/09/26 05:49:36;;;;;;;10.28;5.97;;;;;;;12.19;96.70;98892.31;1712272;82;21151;-70
2022/09/26 05:52:03;;;;;;;10.05;5.87;;;;;;;12.30;95.51;98886.50;1700378;82;21616;-65
2022/09/26 05:54:29;;;;;;;9.53;5.20;;;;;;;12.40;94.22;98892.84;1702982;82;21071;-66
2022/09/26 05:56:56;;;;;;;12.85;5.72;;;;;;;12.50;92.88;98904.90;1668044;84;20953;-67
2022/09/26 05:59:30;;;;;;;24.65;7.10;;;;;;;12.59;92.98;98908.29;1703875;81;21148;-65
2022/09/26 06:02:11;;;;;;;9.85;4.87;;;;;;;12.71;92.54;98893.20;1615072;85;21352;-74
2022/09/26 06:04:41;;;;;;;21.12;7.15;;;;;;;12.83;92.76;98902.91;1658093;84;22747;-67
2022/09/26 06:07:14;;;;;;;15.55;5.65;;;;;;;12.95;92.93;98909.18;1664062;85;21502;-66
2022/09/26 06:09:42;;;;;;;14.98;6.35;;;;;;;13.08;90.09;98900.51;1659457;85;21174;-66
2022/09/26 06:12:12;;;;;;;19.07;7.10;;;;;;;13.23;88.32;98892.70;1665445;84;21628;-69
2022/09/26 06:14:41;;;;;;;17.65;5.83;;;;;;;13.35;87.75;98886.27;1697741;84;21003;-67
2022/09/26 06:17:07;;;;;;;7.83;4.40;;;;;;;13.48;85.72;98868.52;1685203;83;21147;-64
2022/09/26 06:19:35;;;;;;;9.03;4.67;;;;;;;13.59;84.17;98872.61;1690606;83;21061;-66
2022/09/26 06:22:01;;;;;;;12.20;5.95;;;;;;;13.69;84.00;98881.06;1691443;83;21056;-66
2022/09/26 06:24:30;;;;;;;10.05;5.03;;;;;;;13.82;83.39;98880.27;1684874;84;21045;-77
2022/09/26 06:27:00;;;;;;;15.55;5.60;;;;;;;13.94;82.65;98881.66;1658710;84;21045;-67
2022/09/26 06:29:26;;;;;;;10.65;4.62;;;;;;;14.05;82.26;98877.02;1662678;84;21456;-68
2022/09/26 06:31:54;;;;;;;21.07;6.28;;;;;;;14.16;81.28;98865.87;1674042;83;21041;-67
2022/09/26 06:34:38;;;;;;;8.85;5.28;;;;;;;14.27;81.38;98873.37;1732419;80;21141;-65
2022/09/26 06:37:24;;;;;;;10.08;5.33;;;;;;;14.41;79.85;98878.55;1711543;81;21135;-67
2022/09/26 06:39:51;;;;;;;11.78;4.90;;;;;;;14.55;78.96;98871.11;1715674;80;21572;-68
2022/09/26 06:42:18;;;;;;;11.25;4.62;;;;;;;14.71;78.51;98876.14;1725359;80;21351;-69
2022/09/26 06:44:50;;;;;;;8.98;5.65;;;;;;;14.85;77.79;98877.81;1707678;82;21088;-66
2022/09/26 06:47:23;;;;;;;12.73;4.50;;;;;;;15.00;76.95;98871.05;1722320;82;20974;-66
2022/09/26 06:49:52;;;;;;;7.83;3.92;;;;;;;15.13;76.14;98874.52;1724612;82;21290;-67
2022/09/26 06:52:28;;;;;;;9.23;5.03;;;;;;;15.26;75.19;98877.58;1727199;82;21049;-73
2022/09/26 06:54:55;;;;;;;8.90;3.83;;;;;;;15.32;74.19;98866.20;1727315;81;22372;-67
2022/09/26 06:57:22;;;;;;;6.85;3.83;;;;;;;15.43;73.25;98861.51;1676576;83;20999;-67
2022/09/26 06:59:50;;;;;;;8.28;3.25;;;;;;;15.51;71.12;98865.27;1726132;82;21026;-67
2022/09/26 07:02:19;;;;;;;4.42;2.83;;;;;;;15.60;69.33;98868.20;1730805;82;21560;-67
2022/09/26 07:05:05;;;;;;;15.45;2.98;;;;;;;15.68;68.48;98877.67;1657360;83;21083;-64
2022/09/26 07:07:41;;;;;;;6.90;3.00;;;;;;;15.80;68.25;98875.47;1662767;83;21248;-67
2022/09/26 07:10:12;;;;;;;6.50;2.70;;;;;;;15.91;66.76;98881.27;1662053;83;21031;-68
2022/09/26 07:12:46;;;;;;;13.80;3.83;;;;;;;15.91;65.46;98878.17;1647539;85;21542;-70
2022/09/26 07:15:18;;;;;;;3.05;2.42;;;;;;;15.94;65.58;98884.51;1672301;83;21437;-70
2022/09/26 07:17:49;;;;;;;;;;;;;;;16.01;65.92;98880.47;1655410;85;21074;-67
2022/09/26 07:20:32;;;;;;;5.28;3.00;;;;;;;16.09;65.72;98882.55;1668777;84;21160;-67
2022/09/26 07:23:09;;;;;;;7.75;3.08;;;;;;;16.16;65.02;98883.78;1643319;85;21420;-67
2022/09/26 07:25:38;;;;;;;5.42;2.55;;;;;;;16.25;64.82;98874.38;1648220;85;21396;-65
2022/09/26 07:28:09;;;;;;;7.80;3.05;;;;;;;16.34;64.83;98864.05;1668528;85;21328;-66
2022/09/26 07:30:43;;;;;;;3.67;2.75;;;;;;;16.47;63.99;98870.05;1670628;83;21034;-68
2022/09/26 07:33:12;;;;;;;8.10;3.27;;;;;;;16.62;64.01;98873.30;1672474;83;21191;-68
2022/09/26 07:35:47;;;;;;;7.72;3.25;;;;;;;16.74;63.78;98871.58;1683552;83;20939;-67
2022/09/26 07:38:15;;;;;;;2.98;2.67;;;;;;;16.85;64.50;98863.70;1640341;85;21080;-68
2022/09/26 07:40:42;;;;;;;7.95;2.80;;;;;;;16.97;63.29;98844.39;1695521;83;21042;-69
2022/09/26 07:43:10;;;;;;;5.08;3.17;;;;;;;17.12;63.17;98838.41;1652183;85;21134;-67
2022/09/26 07:51:21;;;;;;;9.65;2.83;;;;;;;17.58;60.71;98826.41;1593241;87;21064;-69
2022/09/26 07:53:49;;;;;;;8.48;3.37;;;;;;;17.70;59.66;98821.50;1640804;85;21213;-71
2022/09/26 07:56:20;;;;;;;7.37;2.77;;;;;;;17.83;59.92;98825.27;1632203;86;21115;-67
2022/09/26 07:59:04;;;;;;;4.83;2.87;;;;;;;17.99;59.04;98823.05;1709032;82;21142;-68
2022/09/26 08:01:40;;;;;;;5.42;3.27;;;;;;;18.14;58.97;98827.56;1700399;81;21433;-67
2022/09/26 08:04:17;;;;;;;4.87;2.83;;;;;;;18.27;58.56;98826.05;1729096;82;21128;-65
2022/09/26 08:06:45;;;;;;;5.67;2.60;;;;;;;18.42;57.71;98816.86;1729254;82;21063;-70
2022/09/26 08:09:13;;;;;;;5.20;2.83;;;;;;;18.56;57.52;98818.71;1728247;81;21096;-67
2022/09/26 08:12:00;;;;;;;2.95;2.42;;;;;;;18.75;56.89;98818.02;1734042;81;21149;-70
2022/09/26 08:14:36;;;;;;;2.52;2.17;;;;;;;18.92;56.16;98818.72;1634971;85;21033;-66
2022/09/26 08:17:14;;;;;;;6.92;2.85;;;;;;;19.09;56.20;98818.58;1698626;82;21223;-68
2022/09/26 08:26:13;;;;;;;6.58;2.62;;;;;;;19.24;53.51;98809.33;1724538;82;21027;-67
2022/09/26 08:28:45;;;;;;;5.42;2.27;;;;;;;19.28;53.96;98808.58;1717965;82;21026;-68
2022/09/26 08:31:13;;;;;;;12.25;4.03;;;;;;;19.33;53.09;98814.77;1720339;82;21226;-66
2022/09/26 08:33:40;;;;;;;5.47;2.37;;;;;;;19.33;53.20;98803.74;1631067;86;21106;-65
2022/09/26 08:36:10;;;;;;;6.17;2.77;;;;;;;19.37;53.28;98809.10;1640364;86;21046;-65
2022/09/26 08:38:56;;;;;;;3.55;2.77;;;;;;;19.35;53.04;98807.56;1680354;85;21268;-66
2022/09/26 08:41:44;;;;;;;6.22;3.02;;;;;;;19.24;53.13;98807.17;1651970;84;21474;-66
2022/09/26 08:44:37;;;;;;;2.30;2.10;;;;;;;19.11;52.87;98804.78;1669229;84;21093;-77
2022/09/26 08:47:46;;;;;;;6.40;3.00;;;;;;;18.99;53.15;98808.95;1665483;85;21130;-66
2022/09/26 08:50:49;;;;;;;6.42;2.50;;;;;;;18.88;53.76;98808.09;1652722;85;21068;-67
2022/09/26 08:53:21;;;;;;;6.90;2.42;;;;;;;18.88;53.82;98805.94;1696118;82;23035;-66
2022/09/26 08:55:50;;;;;;;8.30;2.65;;;;;;;18.90;53.44;98806.16;1727142;82;21018;-67
2022/09/26 08:58:26;;;;;;;5.75;2.35;;;;;;;18.91;53.41;98808.31;1739833;80;21000;-69
2022/09/26 09:01:04;;;;;;;5.28;2.10;;;;;;;18.99;53.43;98814.22;1725299;81;21077;-67
2022/09/26 09:03:56;;;;;;;7.30;5.05;;;;;;;19.10;53.05;98802.28;1706130;82;21058;-69
2022/09/26 09:06:23;;;;;;;3.72;2.80;;;;;;;19.23;53.13;98790.52;1712580;80;21089;-69
2022/09/26 09:08:50;;;;;;;4.28;3.00;;;;;;;19.43;53.02;98801.95;1682463;83;21075;-67
2022/09/26 09:12:02;;;;;;;4.08;2.27;;;;;;;19.58;52.31;98794.53;1704420;82;21057;-67
2022/09/26 09:15:24;;;;;;;3.67;2.47;;;;;;;19.61;51.58;98787.64;1706099;82;21032;-69
2022/09/26 09:18:19;;;;;;;7.00;2.80;;;;;;;19.55;51.31;98787.72;1703527;83;21203;-68
2022/09/26 09:21:17;;;;;;;9.98;2.77;;;;;;;19.50;52.34;98785.14;1707430;81;22874;-67
2022/09/26 09:24:26;;;;;;;7.05;3.05;;;;;;;19.49;52.15;98791.34;1728156;82;21141;-67
2022/09/26 09:27:29;;;;;;;4.12;2.10;;;;;;;19.39;52.28;98790.00;1719481;81;21509;-69
2022/09/26 09:30:18;;;;;;;2.27;2.08;;;;;;;19.31;51.67;98785.06;1723148;82;21538;-68
2022/09/26 09:32:59;;;;;;;4.40;2.05;;;;;;;19.23;52.27;98785.73;1665442;81;21064;-67
2022/09/26 09:35:49;;;;;;;3.33;2.00;;;;;;;19.12;52.61;98782.73;1730782;81;21325;-67
2022/09/26 09:38:29;;;;;;;9.73;2.55;;;;;;;19.01;52.86;98773.59;1726789;82;21108;-68
2022/09/26 09:41:11;;;;;;;8.63;2.80;;;;;;;19.02;53.92;98776.58;1732010;81;21128;-66
2022/09/26 09:43:56;;;;;;;7.30;2.17;;;;;;;19.09;53.31;98771.61;1730865;82;20993;-67
2022/09/26 09:46:39;;;;;;;2.30;2.10;;;;;;;19.14;52.95;98770.73;1738325;81;21036;-67
2022/09/26 09:49:22;;;;;;;6.97;2.70;;;;;;;19.12;52.96;98765.59;1724884;82;21132;-67
2022/09/26 09:52:19;;;;;;;8.38;2.33;;;;;;;19.13;53.51;98758.52;1731703;81;21203;-67
2022/09/26 09:55:26;;;;;;;4.47;2.37;;;;;;;19.15;53.50;98755.27;1696377;82;21061;-67
2022/09/26 09:58:11;;;;;;;8.25;2.58;;;;;;;19.13;52.75;98753.25;1708072;82;21091;-69
2022/09/26 10:00:45;;;;;;;6.53;2.37;;;;;;;19.16;53.31;98751.67;1735467;81;21004;-66
2022/09/26 10:03:28;;;;;;;3.75;1.95;;;;;;;19.23;52.94;98743.06;1730419;80;21096;-68
2022/09/26 10:05:59;;;;;;;;;;;;;;;19.31;53.03;98742.39;1729033;82;21052;-67
2022/09/26 10:08:39;;;;;;;7.90;2.60;;;;;;;19.40;52.85;98736.28;1691394;83;20205;-70
2022/09/26 10:11:40;;;;;;;9.98;3.02;;;;;;;19.50;52.83;98735.02;1716341;80;21055;-69
2022/09/26 10:14:14;;;;;;;4.12;2.10;;;;;;;19.60;52.73;98726.13;1721478;81;21040;-70
2022/09/26 10:17:10;;;;;;;4.55;2.27;;;;;;;19.67;51.55;98718.51;1727925;81;21160;-70
2022/09/26 10:19:46;;;;;;;3.83;2.22;;;;;;;19.73;51.63;98710.05;1726488;81;21040;-71
2022/09/26 10:22:34;;;;;;;3.72;2.30;;;;;;;19.82;51.44;98714.47;1725698;81;21064;-71
2022/09/26 10:25:07;;;;;;;8.73;2.65;;;;;;;19.85;51.60;98709.40;1733377;81;21043;-70
2022/09/26 10:27:40;;;;;;;5.50;2.58;;;;;;;19.87;52.04;98710.92;1728410;80;21055;-69
2022/09/26 10:30:25;;;;;;;3.25;1.90;;;;;;;19.94;51.74;98705.93;1721823;80;21172;-69
2022/09/26 10:32:57;;;;;;;10.98;5.22;;;;;;;20.01;51.39;98709.65;1717079;81;21060;-70
2022/09/26 10:35:43;;;;;;;8.08;3.12;;;;;;;20.08;50.92;98705.97;1725810;81;21080;-71
2022/09/26 10:38:26;;;;;;;7.53;2.57;;;;;;;20.11;50.68;98709.16;1664535;83;21063;-71
2022/09/26 10:41:00;;;;;;;6.55;3.52;;;;;;;20.16;49.68;98702.97;1726686;81;21430;-70
2022/09/26 10:43:33;;;;;;;;;;;;;;;20.24;50.37;98697.80;1732249;81;21314;-72
2022/09/26 10:46:13;;;;;;;3.33;2.20;;;;;;;20.36;50.41;98699.80;1731182;82;20167;-70
2022/09/26 10:49:01;;;;;;;3.10;2.20;;;;;;;20.48;49.33;98688.58;1717133;82;21046;-70
2022/09/26 10:51:44;;;;;;;2.75;2.22;;;;;;;20.55;49.16;98686.55;1683061;83;21582;-70
2022/09/26 10:54:19;;;;;;;5.17;2.80;;;;;;;20.66;49.24;98685.51;1690678;83;21126;-70
2022/09/26 10:56:57;;;;;;;3.27;2.30;;;;;;;20.76;48.99;98681.52;1713276;82;21628;-71
2022/09/26 10:59:30;;;;;;;4.45;1.65;;;;;;;20.81;48.58;98669.50;1712375;80;21082;-71
2022/09/26 11:02:00;;;;;;;8.65;2.37;;;;;;;20.83;47.75;98662.75;1697712;82;21124;-71
2022/09/26 11:07:35;;;;;;;4.22;2.40;;;;;;;20.87;48.81;98657.52;1691036;83;21009;-73
2022/09/26 11:10:26;;;;;;;4.62;2.02;;;;;;;20.87;48.05;98662.31;1685540;83;22154;-69
2022/09/26 11:13:18;;;;;;;3.40;2.20;;;;;;;20.80;46.88;98660.39;1695592;83;20999;-71
2022/09/26 11:16:12;;;;;;;5.28;2.85;;;;;;;20.71;47.43;98667.41;1702748;82;21123;-71
2022/09/26 11:19:21;;;;;;;9.08;3.05;;;;;;;20.67;48.49;98664.72;1697623;82;21083;-69
2022/09/26 11:22:15;;;;;;;7.50;2.67;;;;;;;20.62;48.33;98657.71;1732790;81;21096;-69
2022/09/26 11:25:17;;;;;;;3.58;2.15;;;;;;;20.55;47.80;98654.01;1722184;81;21266;-69
2022/09/26 11:27:49;;;;;;;3.80;2.40;;;;;;;20.48;48.05;98652.92;1725837;81;21044;-72
2022/09/26 11:30:21;;;;;;;4.00;2.33;;;;;;;20.39;48.41;98653.78;1736491;80;21048;-69
2022/09/26 11:32:55;;;;;;;6.53;2.10;;;;;;;20.29;48.27;98651.98;1743024;80;21095;-70
2022/09/26 11:36:09;;;;;;;8.28;4.00;;;;;;;20.19;48.40;98650.34;1745473;80;21082;-70
2022/09/26 11:38:46;;;;;;;3.52;2.77;;;;;;;20.10;48.70;98648.09;1746619;80;21523;-70
2022/09/26 11:41:37;;;;;;;5.10;2.83;;;;;;;20.10;49.05;98651.22;1697398;82;21124;-69
2022/09/26 11:44:31;;;;;;;8.80;2.37;;;;;;;20.16;48.72;98650.17;1691952;81;21072;-68
2022/09/26 11:47:24;;;;;;;4.70;2.50;;;;;;;20.25;48.36;98644.01;1697420;82;21829;-70
2022/09/26 11:50:15;;;;;;;5.62;2.60;;;;;;;20.35;48.11;98644.48;1712219;81;21536;-73
2022/09/26 11:53:25;;;;;;;5.45;2.20;;;;;;;20.39;47.45;98642.73;1713189;82;21265;-69
2022/09/26 11:56:14;;;;;;;2.40;2.20;;;;;;;20.41;47.20;98634.66;1722170;82;20936;-69
2022/09/26 11:59:09;;;;;;;6.50;2.72;;;;;;;20.39;47.14;98641.41;1728574;80;21096;-69
2022/09/26 12:02:03;;;;;;;3.67;2.17;;;;;;;20.41;47.00;98638.13;1720216;81;21505;-67
2022/09/26 12:04:50;;;;;;;5.78;2.12;;;;;;;20.46;47.44;98637.22;1721319;82;21510;-70
2022/09/26 12:07:42;;;;;;;4.25;2.87;;;;;;;20.48;47.87;98623.38;1706521;83;21284;-69
2022/09/26 12:10:18;;;;;;;3.70;2.27;;;;;;;20.45;47.98;98622.34;1722580;80;21032;-71
2022/09/26 12:13:13;;;;;;;6.75;2.50;;;;;;;20.39;47.24;98626.88;1730834;81;20954;-70
2022/09/26 12:16:13;;;;;;;7.85;3.20;;;;;;;20.31;47.48;98625.44;1695534;82;21010;-68
2022/09/26 12:19:05;;;;;;;6.00;3.02;;;;;;;20.21;48.00;98621.50;1681603;83;21597;-68
2022/09/26 12:24:48;;;;;;;;;;;;;;;20.01;49.19;98631.78;1733774;82;21048;-68
2022/09/26 12:28:00;;;;;;;7.20;3.00;;;;;;;19.89;49.01;98628.49;1724464;82;20190;-70
2022/09/26 12:30:34;;;;;;;12.85;3.22;;;;;;;19.80;49.47;98622.73;1701409;82;21119;-72
2022/09/26 12:33:35;;;;;;;9.83;3.27;;;;;;;19.75;50.11;98622.84;1731943;82;21065;-70
2022/09/26 12:36:17;;;;;;;7.30;3.60;;;;;;;19.75;50.37;98616.24;1730068;82;21158;-69
2022/09/26 12:39:08;;;;;;;6.00;2.75;;;;;;;19.80;50.32;98614.82;1726794;81;21045;-70
2022/09/26 12:42:12;;;;;;;11.85;3.40;;;;;;;19.90;50.01;98604.25;1732196;82;21009;-69